Time;durP1;ratioP1;P1;durP2;ratioP2;P2;SDS_P1;SDS_P2;PMS_P1;PMS_P2;Temp;Humidity;BMP_temperature;BMP_pressure;BME280_temperature;BME280_humidity;BME280_pressure;Samples;Min_cycle;Max_cycle;Signal;HPM_P1;HPM_P2
2022/11/01 00:00:02;;;;;;;15.50;10.00;;;12.90;99.90;;;;;;5052259;28;20048;-76
2022/11/01 00:02:28;;;;;;;15.02;9.38;;;12.90;99.90;;;;;;5052097;28;20098;-77
2022/11/01 00:04:54;;;;;;;18.63;10.43;;;12.90;99.90;;;;;;5052159;28;20044;-77
2022/11/01 00:07:20;;;;;;;16.23;9.88;;;12.90;99.90;;;;;;5047173;28;20548;-77
2022/11/01 00:09:45;;;;;;;20.92;11.02;;;12.90;99.90;;;;;;5048431;28;20033;-76
2022/11/01 00:12:11;;;;;;;20.25;10.38;;;12.90;99.90;;;;;;5045700;28;20122;-77
2022/11/01 00:14:36;;;;;;;18.80;9.82;;;12.90;99.90;;;;;;5051892;28;20037;-77
2022/11/01 00:17:02;;;;;;;17.30;9.88;;;12.90;99.90;;;;;;5052151;28;20049;-76
2022/11/01 00:19:28;;;;;;;21.42;10.48;;;12.90;99.90;;;;;;5050139;28;20094;-78
2022/11/01 00:21:54;;;;;;;15.90;9.85;;;12.90;99.90;;;;;;5043608;28;20116;-77
2022/11/01 00:24:19;;;;;;;18.08;10.15;;;12.80;99.90;;;;;;5051824;28;20051;-77
2022/11/01 00:26:45;;;;;;;19.02;10.20;;;12.80;99.90;;;;;;5051648;28;20402;-77
2022/11/01 00:29:11;;;;;;;17.23;9.50;;;12.90;99.90;;;;;;5051008;28;20075;-77
2022/11/01 00:31:36;;;;;;;17.58;9.95;;;12.90;99.90;;;;;;5050014;28;20037;-78
2022/11/01 00:34:04;;;;;;;14.95;9.45;;;12.90;99.90;;;;;;5052110;28;20044;-78
2022/11/01 00:36:31;;;;;;;15.70;9.20;;;12.90;99.90;;;;;;5051720;28;20487;-78
2022/11/01 00:38:57;;;;;;;17.33;9.73;;;12.90;99.90;;;;;;5051620;28;20593;-77
2022/11/01 00:41:22;;;;;;;16.20;10.10;;;12.90;99.90;;;;;;5049734;28;20116;-78
2022/11/01 00:43:48;;;;;;;21.05;9.75;;;13.00;99.90;;;;;;5051858;28;20068;-78
2022/11/01 00:46:13;;;;;;;15.70;9.00;;;13.10;99.90;;;;;;5049683;28;20115;-78
2022/11/01 00:48:39;;;;;;;14.60;8.45;;;13.10;99.90;;;;;;5050211;28;20044;-76
2022/11/01 00:51:05;;;;;;;17.77;8.38;;;13.10;99.90;;;;;;5047878;28;20033;-77
2022/11/01 00:53:30;;;;;;;16.65;8.68;;;13.20;99.90;;;;;;5051253;28;20571;-77
2022/11/01 00:56:00;;;;;;;16.25;9.30;;;13.20;99.90;;;;;;5043860;28;20810;-77
2022/11/01 00:58:25;;;;;;;18.30;9.43;;;13.20;99.90;;;;;;5045150;28;20041;-78
2022/11/01 01:00:51;;;;;;;16.23;8.43;;;13.30;99.90;;;;;;5042039;28;20062;-77
2022/11/01 01:03:16;;;;;;;19.02;9.20;;;13.30;99.90;;;;;;5051157;28;20041;-77
2022/11/01 01:05:42;;;;;;;13.68;8.45;;;13.20;99.90;;;;;;5051206;28;20044;-77
2022/11/01 01:08:07;;;;;;;16.83;8.50;;;13.30;99.90;;;;;;5050919;28;20409;-78
2022/11/01 01:10:33;;;;;;;16.65;8.35;;;13.30;99.90;;;;;;5048778;28;20506;-77
2022/11/01 01:12:59;;;;;;;15.85;8.02;;;13.20;99.90;;;;;;5042230;28;20032;-77
2022/11/01 01:15:24;;;;;;;14.48;8.10;;;13.20;99.90;;;;;;5051076;28;20063;-78
2022/11/01 01:17:51;;;;;;;19.52;8.38;;;13.20;99.90;;;;;;5050523;28;20036;-78
2022/11/01 01:20:19;;;;;;;15.25;8.65;;;13.30;99.90;;;;;;5051139;28;20082;-78
2022/11/01 01:22:44;;;;;;;14.23;7.55;;;13.30;99.90;;;;;;5050876;28;20036;-78
2022/11/01 01:25:10;;;;;;;13.60;7.88;;;13.30;99.90;;;;;;5048920;28;20086;-77
2022/11/01 01:27:36;;;;;;;12.98;7.78;;;13.30;99.90;;;;;;5051415;28;20488;-78
2022/11/01 01:30:02;;;;;;;16.77;8.00;;;13.30;99.90;;;;;;5051218;28;20049;-78
2022/11/01 01:32:28;;;;;;;17.17;8.13;;;13.40;99.90;;;;;;5044836;28;20048;-77
2022/11/01 01:34:53;;;;;;;16.25;8.10;;;13.40;99.90;;;;;;5051008;28;20033;-77
2022/11/01 01:37:19;;;;;;;13.77;7.53;;;13.40;99.90;;;;;;5050823;28;20037;-78
2022/11/01 01:39:45;;;;;;;16.48;7.90;;;13.50;99.90;;;;;;5054225;28;20048;-77
2022/11/01 01:42:22;;;;;;;13.18;7.32;;;13.50;99.90;;;;;;5054939;28;20051;-77
2022/11/01 01:44:51;;;;;;;16.38;7.45;;;13.50;99.90;;;;;;5055129;28;20045;-78
2022/11/01 01:47:19;;;;;;;18.25;8.48;;;13.50;99.90;;;;;;5053838;28;20036;-78
2022/11/01 01:49:48;;;;;;;15.95;8.10;;;13.50;99.90;;;;;;5049909;28;20047;-77
2022/11/01 01:52:14;;;;;;;14.23;7.82;;;13.50;99.90;;;;;;5054672;28;20112;-78
2022/11/01 01:54:40;;;;;;;14.48;7.45;;;13.60;99.90;;;;;;5055630;28;20064;-78
2022/11/01 01:57:07;;;;;;;13.35;7.75;;;13.60;99.90;;;;;;5055436;28;20040;-78
2022/11/01 01:59:32;;;;;;;14.55;7.60;;;13.50;99.90;;;;;;5055102;28;20049;-77
2022/11/01 02:01:58;;;;;;;13.40;8.18;;;13.50;99.90;;;;;;5055230;28;20067;-75
2022/11/01 02:04:34;;;;;;;11.60;7.40;;;13.50;99.90;;;;;;5052618;28;20033;-78
2022/11/01 02:07:00;;;;;;;17.40;7.88;;;13.50;99.90;;;;;;5054185;28;20048;-78
2022/11/01 02:09:26;;;;;;;15.27;8.18;;;13.50;99.90;;;;;;5053155;28;20033;-77
2022/11/01 02:11:51;;;;;;;11.98;7.22;;;13.50;99.90;;;;;;5053556;28;20029;-78
2022/11/01 02:14:19;;;;;;;14.27;7.88;;;13.50;99.90;;;;;;5055210;28;20086;-77
2022/11/01 02:16:57;;;;;;;13.15;7.53;;;13.50;99.90;;;;;;5054128;28;20060;-78
2022/11/01 02:19:47;;;;;;;16.52;7.78;;;13.50;99.90;;;;;;5050704;28;20064;-78
2022/11/01 02:22:16;;;;;;;12.57;7.00;;;13.50;99.90;;;;;;5050962;28;20407;-77
2022/11/01 02:25:19;;;;;;;15.00;7.53;;;13.60;99.90;;;;;;5054384;28;20529;-76
2022/11/01 02:28:10;;;;;;;13.88;6.93;;;13.60;99.90;;;;;;5054813;28;20091;-78
2022/11/01 02:30:46;;;;;;;12.68;6.97;;;13.60;99.90;;;;;;5054726;28;20140;-77
2022/11/01 02:33:29;;;;;;;11.60;6.57;;;13.60;99.90;;;;;;5054169;28;20060;-78
2022/11/01 02:36:05;;;;;;;15.50;7.28;;;13.60;99.90;;;;;;5053063;28;20043;-77
2022/11/01 02:38:45;;;;;;;14.80;6.57;;;13.60;99.90;;;;;;5054391;28;20522;-77
2022/11/01 02:41:23;;;;;;;16.00;7.60;;;13.60;99.90;;;;;;5035235;28;20088;-78
2022/11/01 02:44:05;;;;;;;12.10;7.00;;;13.60;99.90;;;;;;5035910;28;20045;-78
2022/11/01 02:49:20;;;;;;;15.32;7.25;;;13.60;99.90;;;;;;5053266;28;20495;-79
2022/11/01 02:51:47;;;;;;;13.43;7.05;;;13.60;99.90;;;;;;5048907;28;20486;-77
2022/11/01 02:54:27;;;;;;;13.85;7.50;;;13.50;99.90;;;;;;5053724;28;20056;-77
2022/11/01 02:56:54;;;;;;;14.32;7.18;;;13.50;99.90;;;;;;5053237;28;20451;-77
2022/11/01 02:59:26;;;;;;;13.82;7.15;;;13.50;99.90;;;;;;5054549;28;20041;-77
2022/11/01 03:02:38;;;;;;;13.20;6.93;;;13.60;99.90;;;;;;5054444;28;20047;-78
2022/11/01 03:05:10;;;;;;;12.10;7.07;;;13.50;99.90;;;;;;5054201;28;20514;-78
2022/11/01 03:07:37;;;;;;;14.75;6.80;;;13.60;99.90;;;;;;5052982;28;20045;-77
2022/11/01 03:10:03;;;;;;;15.60;7.18;;;13.60;99.90;;;;;;5052991;28;20555;-78
2022/11/01 03:12:34;;;;;;;14.20;7.20;;;13.60;99.90;;;;;;5053153;28;20041;-79
2022/11/01 03:15:19;;;;;;;17.55;7.07;;;13.60;99.90;;;;;;5052520;28;20442;-78
2022/11/01 03:18:26;;;;;;;14.23;6.70;;;13.60;99.90;;;;;;5053918;28;20114;-78
2022/11/01 03:21:14;;;;;;;15.68;7.35;;;13.70;99.90;;;;;;5017668;28;20037;-78
2022/11/01 03:23:48;;;;;;;11.95;6.55;;;13.70;99.90;;;;;;5053639;28;20454;-77
2022/11/01 03:26:18;;;;;;;12.48;6.57;;;13.70;99.90;;;;;;5048028;28;20037;-78
2022/11/01 03:28:52;;;;;;;13.43;6.72;;;13.70;99.90;;;;;;5051916;28;20162;-78
2022/11/01 03:31:26;;;;;;;12.70;7.03;;;13.80;99.90;;;;;;5048746;28;20451;-78
2022/11/01 03:33:56;;;;;;;13.75;6.85;;;13.90;99.90;;;;;;5052140;28;20502;-79
2022/11/01 03:36:25;;;;;;;14.75;7.30;;;13.90;99.90;;;;;;5053870;28;20085;-78
2022/11/01 03:38:58;;;;;;;12.27;7.07;;;14.00;99.90;;;;;;5053963;28;20120;-78
2022/11/01 03:41:26;;;;;;;10.93;6.70;;;14.00;99.90;;;;;;5048778;28;20509;-78
2022/11/01 03:43:52;;;;;;;12.95;7.13;;;14.00;99.90;;;;;;5050246;28;20033;-77
2022/11/01 03:46:19;;;;;;;14.65;6.50;;;14.00;99.90;;;;;;5052811;28;20102;-77
2022/11/01 03:48:44;;;;;;;14.35;7.20;;;14.00;99.90;;;;;;5053214;28;20068;-79
2022/11/01 03:51:10;;;;;;;13.88;7.00;;;14.00;99.90;;;;;;5046946;28;20028;-77
2022/11/01 03:53:36;;;;;;;13.07;6.40;;;14.00;99.90;;;;;;5053185;28;20509;-77
2022/11/01 03:56:01;;;;;;;11.82;6.30;;;14.00;99.90;;;;;;5052755;28;20531;-78
2022/11/01 03:58:40;;;;;;;14.52;7.07;;;14.10;99.90;;;;;;5052644;28;20139;-78
2022/11/01 04:01:08;;;;;;;10.95;6.60;;;14.10;99.90;;;;;;5051116;28;20079;-77
2022/11/01 04:03:33;;;;;;;14.95;6.43;;;14.10;99.90;;;;;;5048429;28;20086;-77
2022/11/01 04:05:59;;;;;;;13.07;6.25;;;14.10;99.90;;;;;;5052812;28;20124;-77
2022/11/01 04:08:24;;;;;;;14.48;5.88;;;14.00;99.90;;;;;;5046957;28;20041;-78
2022/11/01 04:10:50;;;;;;;11.05;6.10;;;14.00;99.90;;;;;;5052281;28;20033;-78
2022/11/01 04:13:15;;;;;;;13.52;6.40;;;14.10;99.90;;;;;;5053247;28;20041;-77
2022/11/01 04:21:09;;;;;;;15.02;5.95;;;14.20;99.90;;;;;;5034089;28;20084;-78
2022/11/01 04:23:35;;;;;;;12.55;6.10;;;14.20;99.90;;;;;;5052943;28;20072;-78
2022/11/01 04:26:02;;;;;;;14.13;6.65;;;14.20;99.90;;;;;;5052852;28;20505;-78
2022/11/01 04:28:28;;;;;;;9.15;5.75;;;14.30;99.90;;;;;;5043737;28;20037;-78
2022/11/01 04:30:53;;;;;;;9.77;6.03;;;14.30;99.90;;;;;;5050243;28;20486;-78
2022/11/01 04:33:19;;;;;;;10.45;5.40;;;14.40;99.90;;;;;;5050856;28;20040;-78
2022/11/01 04:35:45;;;;;;;10.95;6.13;;;14.30;99.90;;;;;;5052054;28;20037;-77
2022/11/01 04:38:11;;;;;;;12.35;5.85;;;14.40;99.90;;;;;;5052302;28;20036;-77
2022/11/01 04:40:37;;;;;;;12.18;5.88;;;14.50;99.90;;;;;;5049135;28;20041;-78
2022/11/01 04:43:03;;;;;;;17.02;5.80;;;14.50;99.90;;;;;;5045010;28;20040;-77
2022/11/01 04:45:29;;;;;;;12.52;5.70;;;14.50;99.90;;;;;;5050861;28;20124;-77
2022/11/01 04:48:12;;;;;;;10.70;5.20;;;14.50;99.90;;;;;;5051392;28;20037;-77
2022/11/01 04:50:39;;;;;;;8.95;5.70;;;14.60;99.90;;;;;;5050820;28;20514;-78
2022/11/01 04:53:05;;;;;;;10.57;5.40;;;14.60;99.90;;;;;;5051341;28;20045;-78
2022/11/01 04:55:30;;;;;;;10.48;5.30;;;14.60;99.90;;;;;;5050575;28;20116;-79
2022/11/01 04:57:56;;;;;;;12.57;5.50;;;14.60;99.90;;;;;;5050444;28;20049;-79
2022/11/01 05:00:22;;;;;;;8.52;4.97;;;14.70;99.90;;;;;;5051655;28;20041;-78
2022/11/01 05:02:49;;;;;;;13.05;5.38;;;14.70;99.90;;;;;;5051271;28;20044;-78
2022/11/01 05:05:15;;;;;;;10.43;5.43;;;14.70;99.90;;;;;;5050993;28;20048;-78
2022/11/01 05:07:40;;;;;;;9.32;5.00;;;14.70;99.90;;;;;;5051208;28;20530;-78
2022/11/01 05:10:07;;;;;;;8.93;4.93;;;14.80;99.90;;;;;;5051752;28;20037;-78
2022/11/01 05:12:33;;;;;;;12.20;4.80;;;14.80;99.90;;;;;;5048070;28;20521;-77
2022/11/01 05:14:59;;;;;;;10.82;4.97;;;14.70;99.90;;;;;;5057285;28;20356;-77
2022/11/01 05:17:24;;;;;;;9.60;4.80;;;14.80;99.90;;;;;;5057108;28;20047;-77
2022/11/01 05:19:50;;;;;;;9.27;4.70;;;14.80;99.90;;;;;;5055645;28;20501;-78
2022/11/01 05:22:16;;;;;;;11.02;4.68;;;14.80;99.90;;;;;;5057617;28;20102;-78
2022/11/01 05:24:41;;;;;;;9.18;5.25;;;14.90;99.90;;;;;;5058430;28;20108;-79
2022/11/01 05:27:07;;;;;;;10.68;4.70;;;15.00;99.90;;;;;;5050925;28;20128;-77
2022/11/01 05:29:32;;;;;;;9.45;4.90;;;15.00;99.90;;;;;;5056622;28;20037;-76
2022/11/01 05:31:58;;;;;;;7.35;4.72;;;15.00;99.90;;;;;;5057300;28;20036;-76
2022/11/01 05:34:24;;;;;;;11.73;4.53;;;15.10;99.90;;;;;;5057636;28;20411;-76
2022/11/01 05:36:49;;;;;;;12.00;4.53;;;15.20;99.90;;;;;;5057726;28;20064;-78
2022/11/01 05:39:15;;;;;;;7.82;4.35;;;15.20;99.90;;;;;;5056766;28;20037;-77
2022/11/01 05:41:40;;;;;;;7.20;3.65;;;15.20;99.90;;;;;;5057363;28;20052;-78
2022/11/01 05:44:06;;;;;;;7.90;3.80;;;15.20;99.90;;;;;;5055454;28;20041;-77
2022/11/01 05:46:32;;;;;;;6.40;3.25;;;15.20;99.90;;;;;;5054681;28;20040;-77
2022/11/01 05:48:57;;;;;;;7.15;2.70;;;15.10;99.90;;;;;;5055417;28;20037;-79
2022/11/01 05:51:23;;;;;;;8.20;2.53;;;15.00;99.90;;;;;;5057286;28;20087;-76
2022/11/01 05:53:49;;;;;;;5.32;2.00;;;15.00;99.90;;;;;;5056529;28;20072;-77
2022/11/01 05:56:16;;;;;;;3.63;1.48;;;15.00;99.90;;;;;;5057657;28;20063;-76
2022/11/01 05:58:42;;;;;;;7.10;1.77;;;15.00;99.90;;;;;;5056555;28;20045;-77
2022/11/01 06:01:09;;;;;;;4.45;1.45;;;14.80;99.90;;;;;;5054971;28;20422;-76
2022/11/01 06:03:35;;;;;;;7.22;2.40;;;14.70;99.90;;;;;;5057148;28;20046;-76
2022/11/01 06:06:02;;;;;;;4.32;1.58;;;14.60;99.90;;;;;;5055196;28;20064;-77
2022/11/01 06:08:28;;;;;;;6.55;1.50;;;14.50;99.90;;;;;;5056204;28;20518;-76
2022/11/01 06:11:01;;;;;;;5.38;1.52;;;14.50;99.90;;;;;;5055068;28;20036;-76
2022/11/01 06:13:27;;;;;;;6.03;1.30;;;14.40;99.90;;;;;;5053752;28;20041;-77
2022/11/01 06:16:00;;;;;;;5.93;1.30;;;14.30;99.90;;;;;;5057222;28;20040;-76
2022/11/01 06:18:25;;;;;;;5.73;1.00;;;14.20;99.90;;;;;;5057194;28;20048;-76
2022/11/01 06:20:51;;;;;;;3.03;1.13;;;14.20;99.90;;;;;;5053984;28;20041;-76
2022/11/01 06:23:17;;;;;;;3.60;1.00;;;14.10;99.90;;;;;;5052598;28;20139;-77
2022/11/01 06:25:43;;;;;;;4.63;1.17;;;14.10;99.90;;;;;;5050134;28;20120;-76
2022/11/01 06:28:08;;;;;;;3.80;1.00;;;14.00;99.90;;;;;;5049253;28;20065;-77
2022/11/01 06:30:34;;;;;;;5.65;1.45;;;13.90;99.90;;;;;;5052254;28;20075;-77
2022/11/01 06:33:00;;;;;;;3.78;0.93;;;13.90;99.90;;;;;;5050158;28;20098;-77
2022/11/01 06:35:26;;;;;;;4.50;1.00;;;13.90;99.90;;;;;;5048368;28;20059;-77
2022/11/01 06:37:53;;;;;;;8.00;1.10;;;13.80;99.90;;;;;;5053738;28;20746;-76
2022/11/01 06:40:19;;;;;;;2.72;0.80;;;13.80;99.90;;;;;;5054076;28;20045;-77
2022/11/01 06:42:44;;;;;;;5.60;1.10;;;13.80;99.90;;;;;;5053576;28;20171;-77
2022/11/01 06:45:10;;;;;;;4.97;1.00;;;13.80;99.90;;;;;;5053488;28;20068;-77
2022/11/01 06:47:36;;;;;;;5.25;0.88;;;13.80;99.90;;;;;;5045442;28;20128;-77
2022/11/01 06:50:02;;;;;;;2.88;1.00;;;13.70;99.90;;;;;;5053480;28;20402;-77
2022/11/01 06:52:27;;;;;;;4.63;0.90;;;13.60;99.90;;;;;;5053609;28;20041;-77
2022/11/01 06:54:53;;;;;;;3.95;1.10;;;13.60;99.90;;;;;;5053545;28;20043;-76
2022/11/01 06:57:18;;;;;;;4.97;1.02;;;13.60;99.90;;;;;;5048242;28;20045;-78
2022/11/01 06:59:44;;;;;;;7.90;1.30;;;13.50;99.90;;;;;;5053361;28;20033;-78
2022/11/01 07:02:09;;;;;;;4.85;1.13;;;13.50;99.90;;;;;;5053042;28;20041;-77
2022/11/01 07:04:36;;;;;;;6.57;1.40;;;13.50;99.90;;;;;;5053610;28;20045;-77
2022/11/01 07:07:02;;;;;;;6.22;1.13;;;13.50;99.90;;;;;;5053524;28;20049;-76
2022/11/01 07:09:28;;;;;;;5.97;1.27;;;13.40;99.90;;;;;;5051355;28;20655;-77
2022/11/01 07:11:53;;;;;;;7.05;1.23;;;13.40;99.90;;;;;;5048520;28;20037;-77
2022/11/01 07:14:19;;;;;;;3.85;1.20;;;13.40;99.90;;;;;;5044902;28;20045;-77
2022/11/01 07:16:44;;;;;;;9.82;1.40;;;13.40;99.90;;;;;;5046646;28;20065;-77
2022/11/01 07:19:10;;;;;;;6.90;1.10;;;13.40;99.90;;;;;;5052456;28;20098;-77
2022/11/01 07:21:36;;;;;;;6.78;1.27;;;13.30;99.90;;;;;;5038953;28;20044;-78
2022/11/01 07:24:02;;;;;;;8.40;1.50;;;13.30;99.90;;;;;;5047161;28;20430;-77
2022/11/01 07:26:27;;;;;;;6.80;1.20;;;13.30;99.90;;;;;;5047563;28;20222;-77
2022/11/01 07:28:53;;;;;;;5.80;1.35;;;13.40;99.90;;;;;;5045031;28;20506;-76
2022/11/01 07:31:18;;;;;;;7.80;1.85;;;13.50;99.90;;;;;;5051403;28;20039;-79
2022/11/01 07:33:44;;;;;;;7.38;1.33;;;13.60;99.90;;;;;;5053109;28;20037;-77
2022/11/01 07:36:09;;;;;;;9.13;1.55;;;13.60;99.90;;;;;;5052879;28;20120;-78
2022/11/01 07:38:36;;;;;;;8.30;1.70;;;13.70;99.90;;;;;;5051630;28;20140;-78
2022/11/01 07:41:03;;;;;;;10.77;1.70;;;13.60;99.90;;;;;;5051450;28;20121;-77
2022/11/01 07:43:29;;;;;;;7.38;1.70;;;13.70;99.90;;;;;;5053015;28;20087;-77
2022/11/01 07:45:57;;;;;;;10.10;1.38;;;13.70;99.90;;;;;;5052661;28;20040;-78
2022/11/01 07:48:23;;;;;;;11.40;1.65;;;13.70;99.90;;;;;;5052978;28;20102;-79
2022/11/01 07:50:48;;;;;;;6.55;1.55;;;13.70;99.90;;;;;;5052630;28;20040;-78
2022/11/01 07:53:16;;;;;;;9.73;1.55;;;13.70;99.90;;;;;;5052611;28;20045;-77
2022/11/01 07:55:44;;;;;;;10.13;2.15;;;13.80;99.90;;;;;;5048141;28;20112;-78
2022/11/01 07:58:11;;;;;;;8.30;1.50;;;13.90;99.90;;;;;;5047893;28;20033;-79
2022/11/01 08:00:38;;;;;;;7.13;1.52;;;13.90;99.90;;;;;;5050644;28;20029;-77
2022/11/01 08:03:06;;;;;;;6.50;1.38;;;14.00;99.90;;;;;;5050859;28;20033;-77
2022/11/01 08:05:32;;;;;;;6.93;1.20;;;13.90;99.90;;;;;;5052379;28;20044;-78
2022/11/01 08:07:58;;;;;;;8.52;1.30;;;13.90;99.90;;;;;;5049039;28;20047;-77
2022/11/01 08:10:24;;;;;;;10.60;1.65;;;13.90;99.90;;;;;;5050367;28;20089;-78
2022/11/01 08:12:49;;;;;;;9.15;1.60;;;14.00;99.90;;;;;;5047713;28;20552;-76
2022/11/01 08:15:15;;;;;;;9.57;1.48;;;14.00;99.90;;;;;;5046395;28;20111;-77
2022/11/01 08:17:41;;;;;;;8.32;1.40;;;14.00;99.90;;;;;;5047302;28;20495;-79
2022/11/01 08:20:07;;;;;;;9.30;1.63;;;14.00;99.90;;;;;;5050369;28;20132;-78
2022/11/01 08:22:33;;;;;;;9.98;2.08;;;14.00;99.90;;;;;;5051979;28;20033;-77
2022/11/01 08:24:58;;;;;;;9.25;1.63;;;14.10;99.90;;;;;;5042553;28;20033;-78
2022/11/01 08:27:24;;;;;;;11.50;2.13;;;14.10;99.90;;;;;;5034328;28;20091;-77
2022/11/01 08:29:50;;;;;;;8.23;2.05;;;14.10;99.90;;;;;;5052094;28;20090;-77
2022/11/01 08:32:21;;;;;;;11.90;2.15;;;14.10;99.90;;;;;;5051956;28;20044;-78
2022/11/01 08:34:47;;;;;;;12.18;1.88;;;14.20;99.90;;;;;;5038220;28;20041;-78
2022/11/01 08:37:13;;;;;;;6.63;1.60;;;14.20;99.90;;;;;;5044202;28;20593;-79
2022/11/01 08:39:39;;;;;;;7.90;1.52;;;14.20;99.90;;;;;;5045275;28;20037;-79
2022/11/01 08:42:05;;;;;;;12.98;2.47;;;14.20;99.90;;;;;;5031629;28;20566;-78
2022/11/01 08:44:33;;;;;;;14.50;2.22;;;14.20;99.90;;;;;;5030379;28;20041;-77
2022/11/01 08:47:00;;;;;;;8.48;2.25;;;14.10;99.90;;;;;;5031543;28;20446;-76
2022/11/01 08:49:26;;;;;;;14.80;2.45;;;14.10;99.90;;;;;;5030885;28;20038;-77
2022/11/01 08:51:52;;;;;;;12.30;2.53;;;14.10;99.90;;;;;;5032139;28;20033;-77
2022/11/01 08:54:18;;;;;;;13.52;2.45;;;14.10;99.90;;;;;;5031495;28;20048;-78
2022/11/01 08:56:43;;;;;;;12.82;2.08;;;14.10;99.90;;;;;;5034732;28;20064;-77
2022/11/01 08:59:09;;;;;;;15.70;2.55;;;14.10;99.90;;;;;;5032633;28;20502;-76
2022/11/01 09:01:35;;;;;;;15.98;2.83;;;14.10;99.90;;;;;;5039807;28;20093;-78
2022/11/01 09:04:01;;;;;;;13.95;2.35;;;14.20;99.90;;;;;;5042429;28;20029;-77
2022/11/01 09:06:27;;;;;;;15.43;2.42;;;14.20;99.90;;;;;;5043119;28;20549;-78
2022/11/01 09:08:54;;;;;;;15.00;2.53;;;14.20;99.90;;;;;;5041175;28;20069;-78
2022/11/01 09:11:21;;;;;;;11.38;2.47;;;14.30;99.90;;;;;;5042952;28;20059;-79
2022/11/01 09:13:48;;;;;;;14.02;2.25;;;14.30;99.90;;;;;;5047647;28;20037;-77
2022/11/01 09:16:13;;;;;;;11.98;2.33;;;14.50;99.90;;;;;;5048968;28;20032;-78
2022/11/01 09:18:39;;;;;;;16.10;3.28;;;14.50;99.90;;;;;;5050368;28;20509;-78
2022/11/01 09:21:06;;;;;;;19.00;3.00;;;14.60;99.90;;;;;;5041332;28;20182;-78
2022/11/01 09:23:33;;;;;;;14.35;2.53;;;14.70;99.90;;;;;;5042323;28;20460;-78
2022/11/01 09:26:03;;;;;;;13.52;2.55;;;14.80;99.90;;;;;;5046067;28;20041;-78
2022/11/01 09:28:30;;;;;;;13.65;2.50;;;14.80;99.90;;;;;;5041238;28;20041;-76
2022/11/01 09:30:56;;;;;;;15.07;2.25;;;14.90;99.90;;;;;;5050026;28;20398;-78
2022/11/01 09:33:22;;;;;;;15.30;2.33;;;14.90;99.90;;;;;;5043485;28;20033;-78
2022/11/01 09:35:51;;;;;;;17.83;2.75;;;14.90;99.90;;;;;;5049223;28;20036;-78
2022/11/01 09:38:17;;;;;;;17.27;2.55;;;14.90;99.90;;;;;;5049681;28;20051;-77
2022/11/01 09:40:45;;;;;;;14.63;3.15;;;14.90;99.90;;;;;;5050939;28;20041;-76
2022/11/01 09:43:20;;;;;;;11.75;2.13;;;15.00;99.90;;;;;;5051000;28;20033;-78
2022/11/01 09:45:49;;;;;;;13.27;2.20;;;15.00;99.90;;;;;;5050448;28;20041;-78
2022/11/01 09:48:16;;;;;;;15.70;2.70;;;15.00;99.90;;;;;;5050423;28;20068;-78
2022/11/01 09:50:42;;;;;;;13.32;2.10;;;15.10;99.90;;;;;;5032138;28;20199;-78
2022/11/01 09:53:16;;;;;;;10.57;2.00;;;15.10;99.90;;;;;;5047297;28;20040;-78
2022/11/01 09:55:58;;;;;;;10.88;2.47;;;15.10;99.90;;;;;;5032834;28;20539;-79
2022/11/01 09:58:49;;;;;;;14.60;2.50;;;15.10;99.90;;;;;;5046065;28;20036;-80
2022/11/01 10:01:40;;;;;;;15.93;2.65;;;15.10;99.90;;;;;;5046332;28;20036;-79
2022/11/01 10:04:15;;;;;;;17.20;2.72;;;15.10;99.90;;;;;;5046879;28;20072;-80
2022/11/01 10:07:21;;;;;;;15.23;2.90;;;15.10;99.90;;;;;;5050868;28;20521;-79
2022/11/01 10:10:17;;;;;;;13.27;2.50;;;15.20;99.90;;;;;;5046184;28;20107;-81
2022/11/01 10:13:07;;;;;;;13.90;2.30;;;15.20;99.90;;;;;;5045112;28;20032;-78
2022/11/01 10:15:39;;;;;;;13.65;2.60;;;15.10;99.90;;;;;;5050720;28;20029;-79
2022/11/01 10:18:30;;;;;;;13.57;2.88;;;15.10;99.90;;;;;;5051420;28;20123;-78
2022/11/01 10:21:00;;;;;;;16.05;2.35;;;15.10;99.90;;;;;;5050464;28;20521;-77
2022/11/01 10:23:51;;;;;;;19.02;2.75;;;15.00;99.90;;;;;;5049107;28;20446;-77
2022/11/01 10:26:28;;;;;;;14.57;2.35;;;15.00;99.90;;;;;;5049158;28;20029;-77
2022/11/01 10:29:15;;;;;;;13.00;2.63;;;15.00;99.90;;;;;;5045848;28;20167;-77
2022/11/01 10:31:44;;;;;;;12.85;2.63;;;15.10;99.90;;;;;;5048277;28;20044;-77
2022/11/01 10:34:29;;;;;;;15.15;2.47;;;15.10;99.90;;;;;;5047675;28;20033;-77
2022/11/01 10:37:10;;;;;;;12.85;2.70;;;15.20;99.90;;;;;;5046211;28;20064;-77
2022/11/01 10:39:41;;;;;;;16.05;2.75;;;15.20;99.90;;;;;;5049675;28;20029;-77
2022/11/01 10:42:11;;;;;;;15.13;2.53;;;15.30;99.90;;;;;;5048860;28;20148;-77
2022/11/01 10:44:42;;;;;;;9.30;2.20;;;15.30;99.90;;;;;;5048969;28;20091;-76
2022/11/01 10:47:16;;;;;;;11.20;2.50;;;15.30;99.90;;;;;;5047770;28;20045;-77
2022/11/01 10:49:56;;;;;;;12.45;2.70;;;15.30;99.90;;;;;;5051692;28;20033;-77
2022/11/01 10:52:27;;;;;;;14.82;2.60;;;15.20;99.90;;;;;;5048389;28;20112;-78
2022/11/01 10:54:55;;;;;;;15.55;3.35;;;15.20;99.90;;;;;;5045013;28;20033;-77
2022/11/01 10:57:26;;;;;;;15.13;2.67;;;15.20;99.90;;;;;;5043459;28;20037;-77
2022/11/01 10:59:55;;;;;;;17.55;3.03;;;15.20;99.90;;;;;;5052389;28;20045;-77
2022/11/01 11:02:30;;;;;;;16.80;2.70;;;15.20;99.90;;;;;;5050234;28;20278;-75
2022/11/01 11:04:56;;;;;;;12.30;2.20;;;15.20;99.90;;;;;;5046518;28;20380;-75
2022/11/01 11:07:24;;;;;;;10.82;2.20;;;15.00;99.90;;;;;;5044689;28;20045;-76
2022/11/01 11:09:50;;;;;;;18.77;2.95;;;14.90;99.90;;;;;;5048721;28;20087;-76
2022/11/01 11:12:21;;;;;;;10.35;2.38;;;14.90;99.90;;;;;;5050013;28;20140;-77
2022/11/01 11:14:49;;;;;;;9.95;2.28;;;14.90;99.90;;;;;;5052831;28;20044;-78
2022/11/01 11:17:24;;;;;;;13.70;2.88;;;14.90;99.90;;;;;;5046530;28;20047;-76
2022/11/01 11:19:59;;;;;;;14.02;2.60;;;14.90;99.90;;;;;;5046794;28;20037;-76
2022/11/01 11:22:25;;;;;;;16.70;2.63;;;14.90;99.90;;;;;;5048806;28;20434;-76
2022/11/01 11:24:56;;;;;;;14.45;2.70;;;15.00;99.90;;;;;;5033698;28;21121;-78
2022/11/01 11:27:28;;;;;;;17.17;2.53;;;15.00;99.90;;;;;;5035476;28;20529;-76
2022/11/01 11:30:04;;;;;;;12.20;2.30;;;15.10;99.90;;;;;;5038530;28;20063;-77
2022/11/01 11:32:44;;;;;;;10.43;2.13;;;15.10;99.90;;;;;;5046831;28;20438;-77
2022/11/01 11:35:12;;;;;;;11.77;2.17;;;15.10;99.90;;;;;;5046344;28;20083;-78
2022/11/01 11:37:40;;;;;;;20.25;2.92;;;15.10;99.90;;;;;;5035218;28;20077;-76
2022/11/01 11:40:11;;;;;;;15.32;2.65;;;15.10;99.90;;;;;;5049580;28;20037;-77
2022/11/01 11:42:37;;;;;;;13.45;2.60;;;15.10;99.90;;;;;;5045483;28;20133;-77
2022/11/01 11:45:17;;;;;;;14.52;2.58;;;15.20;99.90;;;;;;5040692;28;20874;-76
2022/11/01 11:47:43;;;;;;;15.07;2.47;;;15.20;99.90;;;;;;5042005;28;20507;-76
2022/11/01 11:50:21;;;;;;;11.00;2.60;;;15.40;99.90;;;;;;5040880;28;20071;-76
2022/11/01 11:52:59;;;;;;;12.65;2.67;;;15.50;99.90;;;;;;5041033;28;20033;-76
2022/11/01 11:56:50;;;;;;;18.10;2.67;;;15.70;99.90;;;;;;5119381;27;20979;-78
2022/11/01 11:59:27;;;;;;;15.30;2.78;;;15.70;99.90;;;;;;5100217;28;20093;-77
2022/11/01 12:02:02;;;;;;;8.65;2.17;;;15.70;99.90;;;;;;5093810;28;20471;-78
2022/11/01 12:04:45;;;;;;;12.15;2.10;;;15.70;99.90;;;;;;5133270;27;20040;-75
2022/11/01 12:07:30;;;;;;;12.03;2.07;;;15.80;99.90;;;;;;5102963;28;20028;-77
2022/11/01 12:10:01;;;;;;;14.27;2.42;;;15.70;99.90;;;;;;5087463;28;20277;-78
2022/11/01 12:12:28;;;;;;;10.75;2.10;;;15.70;99.90;;;;;;5105131;28;20039;-78
2022/11/01 12:14:54;;;;;;;10.05;2.65;;;15.80;99.90;;;;;;5106919;28;20040;-78
2022/11/01 12:17:29;;;;;;;11.60;2.58;;;15.80;99.90;;;;;;5076460;28;20110;-77
2022/11/01 12:20:08;;;;;;;11.00;2.47;;;15.80;99.90;;;;;;5091230;28;20402;-77
2022/11/01 12:22:37;;;;;;;12.98;2.17;;;15.80;99.90;;;;;;5103249;28;20040;-76
2022/11/01 12:25:07;;;;;;;13.68;2.42;;;15.90;99.90;;;;;;5101381;28;20066;-77
2022/11/01 12:27:34;;;;;;;12.90;2.42;;;16.10;99.90;;;;;;5092150;28;20039;-77
2022/11/01 12:30:07;;;;;;;14.25;2.17;;;16.10;99.90;;;;;;5106283;28;20061;-76
2022/11/01 12:32:47;;;;;;;13.05;2.22;;;16.10;99.90;;;;;;5081393;28;20032;-76
2022/11/01 12:35:35;;;;;;;14.32;2.70;;;16.20;99.90;;;;;;5078852;28;20036;-76
2022/11/01 12:38:31;;;;;;;11.00;2.72;;;16.20;99.90;;;;;;5081593;28;20039;-76
2022/11/01 12:41:01;;;;;;;8.95;1.92;;;16.10;99.90;;;;;;5102670;28;20036;-77
2022/11/01 12:43:54;;;;;;;11.45;2.42;;;16.10;99.90;;;;;;5104218;28;20527;-77
2022/11/01 12:46:47;;;;;;;9.00;1.95;;;16.10;99.90;;;;;;5103608;28;20062;-79
2022/11/01 12:49:34;;;;;;;10.70;2.05;;;16.10;99.90;;;;;;5096984;28;20038;-77
2022/11/01 12:52:16;;;;;;;10.90;1.95;;;16.10;99.90;;;;;;5096047;28;20064;-77
2022/11/01 12:54:50;;;;;;;8.90;1.98;;;16.10;99.90;;;;;;5102217;28;20039;-77
2022/11/01 12:57:17;;;;;;;13.77;2.20;;;16.10;99.90;;;;;;5079622;28;20044;-78
2022/11/01 12:59:44;;;;;;;11.38;1.88;;;16.20;99.90;;;;;;5104213;28;20106;-78